createdAt,value
2019-04-27T00:01:28.444Z,7.90
2019-04-27T00:04:04.915Z,5.72
2019-04-27T00:06:46.441Z,8.48
2019-04-27T00:09:28.707Z,7.35
2019-04-27T00:12:03.482Z,6.15
2019-04-27T00:14:33.007Z,7.33
2019-04-27T00:17:03.924Z,7.28
2019-04-27T00:19:43.710Z,9.83
2019-04-27T00:22:29.997Z,8.93
2019-04-27T00:24:58.854Z,10.03
2019-04-27T00:27:27.770Z,10.72
2019-04-27T00:29:56.696Z,7.92
2019-04-27T00:32:25.619Z,11.55
2019-04-27T00:34:54.483Z,12.30
2019-04-27T00:37:24.979Z,12.13
2019-04-27T00:39:58.404Z,10.95
2019-04-27T00:42:27.319Z,12.88
2019-04-27T00:44:56.239Z,12.65
2019-04-27T00:47:25.105Z,11.10
2019-04-27T00:49:55.016Z,10.30
2019-04-27T00:52:24.155Z,10.93
2019-04-27T00:54:53.936Z,8.98
2019-04-27T00:57:38.216Z,12.43
2019-04-27T01:00:23.791Z,11.20
2019-04-27T01:03:00.408Z,11.35
2019-04-27T01:05:30.607Z,13.05
2019-04-27T01:07:59.711Z,14.13
2019-04-27T01:10:28.579Z,10.63
2019-04-27T01:12:57.435Z,11.65
2019-04-27T01:15:26.295Z,11.55
2019-04-27T01:18:10.518Z,9.28
2019-04-27T01:20:25.719Z,10.23
2019-04-27T01:22:54.587Z,10.23
2019-04-27T01:25:25.067Z,11.83
2019-04-27T01:27:55.555Z,8.88
2019-04-27T01:30:42.564Z,11.48
2019-04-27T01:33:11.488Z,11.00
2019-04-27T01:35:40.651Z,12.78
2019-04-27T01:38:09.505Z,11.78
2019-04-27T01:40:38.710Z,12.68
2019-04-27T01:43:09.141Z,12.70
2019-04-27T01:45:39.110Z,11.12
2019-04-27T01:48:20.882Z,12.13
2019-04-27T01:50:39.195Z,10.43
2019-04-27T01:53:09.100Z,13.32
2019-04-27T01:55:40.536Z,13.28
2019-04-27T01:58:10.953Z,13.48
2019-04-27T02:00:42.555Z,12.28
2019-04-27T02:03:13.143Z,11.97
2019-04-27T02:05:46.832Z,17.40
2019-04-27T02:08:15.700Z,16.93
2019-04-27T02:10:44.551Z,15.55
2019-04-27T02:13:13.486Z,17.67
2019-04-27T02:15:42.595Z,18.67
2019-04-27T02:18:11.458Z,14.85
2019-04-27T02:20:40.311Z,13.05
2019-04-27T02:23:09.279Z,12.75
2019-04-27T02:25:39.655Z,14.13
2019-04-27T02:28:27.247Z,10.23
2019-04-27T02:31:01.860Z,12.68
2019-04-27T02:33:32.640Z,12.13
2019-04-27T02:36:01.537Z,15.23
2019-04-27T02:38:30.715Z,19.23
2019-04-27T02:41:00.439Z,18.45
2019-04-27T02:43:46.216Z,19.95
2019-04-27T02:46:15.403Z,19.42
2019-04-27T02:48:55.345Z,22.15
2019-04-27T02:51:16.469Z,22.35
2019-04-27T02:53:55.882Z,23.95
2019-04-27T02:56:25.161Z,28.35
2019-04-27T02:58:54.090Z,28.98
2019-04-27T03:01:24.659Z,21.52
2019-04-27T03:03:53.848Z,18.98
2019-04-27T03:06:22.793Z,20.02
2019-04-27T03:08:54.074Z,19.50
2019-04-27T03:11:23.426Z,18.70
2019-04-27T03:14:28.415Z,27.10
2019-04-27T03:16:49.619Z,28.60
2019-04-27T03:19:39.822Z,22.82
2019-04-27T03:22:16.446Z,19.25
2019-04-27T03:25:03.501Z,31.27
2019-04-27T03:27:46.045Z,42.38
2019-04-27T03:30:15.721Z,30.40
2019-04-27T03:32:44.635Z,31.40
2019-04-27T03:35:13.895Z,42.75
2019-04-27T03:37:44.019Z,55.12
2019-04-27T03:40:12.957Z,49.75
2019-04-27T03:42:43.517Z,31.87
2019-04-27T03:45:12.462Z,25.27
2019-04-27T03:47:41.304Z,24.50
2019-04-27T03:50:12.302Z,24.65
2019-04-27T03:52:59.937Z,28.65
2019-04-27T03:55:33.409Z,30.32
2019-04-27T03:58:21.637Z,35.97
2019-04-27T04:00:52.452Z,35.40
2019-04-27T04:03:21.516Z,34.60
2019-04-27T04:05:52.027Z,33.58
2019-04-27T04:08:21.065Z,37.15
2019-04-27T04:10:51.575Z,38.58
2019-04-27T04:13:22.837Z,36.15
2019-04-27T04:16:00.279Z,42.30
2019-04-27T04:18:31.834Z,38.23
2019-04-27T04:21:00.880Z,34.43
2019-04-27T04:23:30.082Z,25.70
2019-04-27T04:25:59.762Z,27.85
2019-04-27T04:28:29.619Z,22.58
2019-04-27T04:31:00.478Z,21.62
2019-04-27T04:33:30.398Z,22.50
2019-04-27T04:35:59.823Z,20.02
2019-04-27T04:38:30.487Z,20.27
2019-04-27T04:41:01.244Z,21.00
2019-04-27T04:43:39.706Z,24.50
2019-04-27T04:46:29.640Z,29.87
2019-04-27T04:49:00.032Z,41.42
2019-04-27T04:51:30.304Z,45.78
2019-04-27T04:53:59.941Z,47.67
2019-04-27T04:56:29.276Z,45.23
2019-04-27T04:59:00.055Z,76.75
2019-04-27T05:01:29.924Z,58.48
2019-04-27T05:03:59.092Z,76.35
2019-04-27T05:06:29.213Z,77.45
2019-04-27T05:08:59.526Z,70.72
2019-04-27T05:11:29.773Z,81.40
2019-04-27T05:13:59.382Z,73.45
2019-04-27T05:16:29.327Z,72.50
2019-04-27T05:18:59.389Z,76.57
2019-04-27T05:21:31.327Z,65.30
2019-04-27T05:24:00.725Z,67.27
2019-04-27T05:26:29.792Z,54.70
2019-04-27T05:28:59.268Z,53.90
2019-04-27T05:31:29.402Z,48.70
2019-04-27T05:33:59.354Z,39.98
2019-04-27T05:36:29.667Z,35.95
2019-04-27T05:38:59.774Z,32.00
2019-04-27T05:41:31.220Z,31.17
2019-04-27T05:44:03.203Z,26.48
2019-04-27T05:46:52.795Z,26.55
2019-04-27T05:49:41.173Z,21.48
2019-04-27T05:52:14.596Z,22.70
2019-04-27T05:54:40.991Z,20.57
2019-04-27T05:57:09.850Z,19.40
2019-04-27T05:59:39.809Z,18.80
2019-04-27T06:02:09.409Z,18.57
2019-04-27T06:04:39.051Z,18.57
2019-04-27T06:07:09.247Z,16.05
2019-04-27T06:09:39.169Z,18.50
2019-04-27T06:12:08.986Z,18.37
2019-04-27T06:14:39.334Z,14.07
2019-04-27T06:17:09.531Z,14.55
2019-04-27T06:19:39.142Z,15.55
2019-04-27T06:22:09.612Z,13.22
2019-04-27T06:24:39.732Z,13.95
2019-04-27T06:27:09.393Z,13.75
2019-04-27T06:29:39.216Z,14.63
2019-04-27T06:32:10.758Z,12.60
2019-04-27T06:34:39.579Z,12.37
2019-04-27T06:37:09.558Z,12.30
2019-04-27T06:39:38.725Z,11.10
2019-04-27T06:42:16.735Z,7.67
2019-04-27T06:44:39.486Z,10.75
2019-04-27T06:47:09.094Z,9.23
2019-04-27T06:49:39.588Z,8.90
2019-04-27T06:52:08.732Z,10.30
2019-04-27T06:54:38.947Z,7.65
2019-04-27T06:57:09.195Z,7.12
2019-04-27T06:59:39.830Z,7.75
2019-04-27T07:02:08.991Z,7.15
2019-04-27T07:04:39.113Z,6.40
2019-04-27T07:07:09.797Z,7.12
2019-04-27T07:09:39.285Z,7.83
2019-04-27T07:12:08.997Z,8.13
2019-04-27T07:14:51.985Z,7.75
2019-04-27T07:17:08.953Z,8.85
2019-04-27T07:19:39.504Z,9.05
2019-04-27T07:22:09.088Z,7.15
2019-04-27T07:24:40.584Z,8.40
2019-04-27T07:27:09.586Z,7.33
2019-04-27T07:29:40.294Z,7.47
2019-04-27T07:32:09.343Z,10.30
2019-04-27T07:34:38.774Z,10.60
2019-04-27T07:37:09.732Z,10.15
2019-04-27T07:39:39.097Z,8.10
2019-04-27T07:42:09.232Z,7.33
2019-04-27T07:44:42.435Z,11.75
2019-04-27T07:47:15.863Z,11.75
2019-04-27T07:49:45.919Z,13.13
2019-04-27T07:52:14.775Z,11.73
2019-04-27T07:54:43.938Z,13.55
2019-04-27T07:57:12.800Z,14.23
2019-04-27T07:59:42.261Z,16.62
2019-04-27T08:02:11.237Z,14.18
2019-04-27T08:04:40.164Z,14.13
2019-04-27T08:07:09.228Z,15.35
2019-04-27T08:09:39.757Z,15.30
2019-04-27T08:12:10.690Z,16.10
2019-04-27T08:14:39.321Z,16.60
2019-04-27T08:17:09.781Z,17.37
2019-04-27T08:19:39.576Z,17.32
2019-04-27T08:22:09.690Z,16.50
2019-04-27T08:24:39.565Z,19.23
2019-04-27T08:27:13.180Z,12.85
2019-04-27T08:29:46.375Z,10.25
2019-04-27T08:32:16.876Z,13.43
2019-04-27T08:34:45.743Z,11.93
2019-04-27T08:37:14.588Z,12.85
2019-04-27T08:39:43.459Z,14.05
2019-04-27T08:42:12.319Z,14.35
2019-04-27T08:44:41.577Z,14.23
2019-04-27T08:47:10.424Z,12.28
2019-04-27T08:49:39.507Z,12.45
2019-04-27T08:52:09.423Z,14.78
2019-04-27T08:54:39.401Z,11.88
2019-04-27T08:57:09.692Z,14.58
2019-04-27T08:59:39.285Z,13.40
2019-04-27T09:02:08.858Z,15.00
2019-04-27T09:04:39.446Z,13.05
2019-04-27T09:07:26.519Z,11.88
2019-04-27T09:09:57.003Z,14.35
2019-04-27T09:12:33.897Z,14.75
2019-04-27T09:15:13.820Z,11.05
2019-04-27T09:17:44.315Z,12.53
2019-04-27T09:20:14.879Z,13.58
2019-04-27T09:22:43.814Z,12.18
2019-04-27T09:25:12.760Z,11.18
2019-04-27T09:27:41.595Z,11.30
2019-04-27T09:30:10.693Z,9.65
2019-04-27T09:32:40.805Z,8.80
2019-04-27T09:35:09.927Z,10.78
2019-04-27T09:37:38.775Z,8.40
2019-04-27T09:40:08.197Z,9.13
2019-04-27T09:42:39.270Z,6.87
2019-04-27T09:45:08.195Z,7.15
2019-04-27T09:47:39.143Z,8.08
2019-04-27T09:50:07.835Z,8.40
2019-04-27T09:52:36.879Z,9.95
2019-04-27T09:55:06.558Z,8.18
2019-04-27T09:57:38.283Z,11.15
2019-04-27T10:00:11.439Z,7.50
2019-04-27T10:02:40.696Z,9.27
2019-04-27T10:05:10.215Z,6.75
2019-04-27T10:07:39.071Z,12.65
2019-04-27T10:10:08.096Z,11.57
2019-04-27T10:12:37.034Z,10.58
2019-04-27T10:15:06.477Z,9.23
2019-04-27T10:17:35.331Z,9.83
2019-04-27T10:20:06.044Z,7.03
2019-04-27T10:22:41.268Z,11.78
2019-04-27T10:25:07.171Z,8.08
2019-04-27T10:27:36.027Z,9.88
2019-04-27T10:30:09.159Z,8.55
2019-04-27T10:32:38.988Z,7.47
2019-04-27T10:35:07.924Z,9.18
2019-04-27T10:37:36.964Z,11.33
2019-04-27T10:40:06.300Z,7.50
2019-04-27T10:42:35.943Z,8.58
2019-04-27T10:45:06.403Z,8.63
2019-04-27T10:47:36.052Z,10.38
2019-04-27T10:50:05.955Z,10.43
2019-04-27T10:52:34.886Z,10.28
2019-04-27T10:55:05.843Z,12.10
2019-04-27T10:57:34.944Z,8.38
2019-04-27T11:00:06.710Z,10.40
2019-04-27T11:02:36.583Z,10.35
2019-04-27T11:05:17.152Z,17.90
2019-04-27T11:07:46.380Z,15.20
2019-04-27T11:10:16.404Z,13.25
2019-04-27T11:12:46.183Z,13.83
2019-04-27T11:15:16.354Z,17.80
2019-04-27T11:17:47.530Z,14.93
2019-04-27T11:20:16.682Z,11.25
2019-04-27T11:22:46.480Z,11.83
2019-04-27T11:25:16.415Z,12.50
2019-04-27T11:27:45.528Z,9.95
2019-04-27T11:30:15.684Z,13.30
2019-04-27T11:32:44.720Z,9.73
2019-04-27T11:35:22.622Z,11.95
2019-04-27T11:37:53.115Z,9.68
2019-04-27T11:40:22.791Z,11.85
2019-04-27T11:42:51.642Z,8.88
2019-04-27T11:45:20.490Z,9.65
2019-04-27T11:47:49.367Z,9.35
2019-04-27T11:50:18.567Z,9.30
2019-04-27T11:52:47.485Z,10.95
2019-04-27T11:55:16.620Z,11.63
2019-04-27T11:57:47.000Z,8.15
2019-04-27T12:00:18.421Z,12.33
2019-04-27T12:02:47.267Z,5.80
2019-04-27T12:05:16.824Z,6.62
2019-04-27T12:07:47.741Z,6.55
2019-04-27T12:10:16.515Z,6.00
2019-04-27T12:12:46.388Z,11.55
2019-04-27T12:15:16.096Z,8.13
2019-04-27T12:17:46.040Z,5.42
2019-04-27T12:20:17.533Z,5.20
2019-04-27T12:22:45.911Z,5.03
2019-04-27T12:25:14.929Z,5.58
2019-04-27T12:28:01.732Z,4.45
2019-04-27T12:30:32.223Z,4.67
2019-04-27T12:33:01.079Z,1.75
2019-04-27T12:35:29.926Z,2.22
2019-04-27T12:37:58.787Z,2.60
2019-04-27T12:40:27.643Z,1.72
2019-04-27T12:42:56.493Z,2.62
2019-04-27T12:45:26.705Z,2.40
2019-04-27T12:47:56.636Z,2.27
2019-04-27T12:50:26.151Z,1.22
2019-04-27T12:52:56.783Z,1.00
2019-04-27T12:55:43.792Z,1.32
2019-04-27T12:58:17.457Z,4.72
2019-04-27T13:01:03.553Z,4.20
2019-04-27T13:03:32.411Z,1.80
2019-04-27T13:06:01.262Z,3.00
2019-04-27T13:08:30.114Z,6.25
2019-04-27T13:10:58.971Z,2.95
2019-04-27T13:13:27.822Z,3.20
2019-04-27T13:15:56.678Z,2.10
2019-04-27T13:18:25.886Z,3.72
2019-04-27T13:20:54.864Z,4.40
2019-04-27T13:23:23.711Z,3.20
2019-04-27T13:25:52.563Z,3.70
2019-04-27T13:28:21.491Z,1.65
2019-04-27T13:30:50.338Z,1.92
2019-04-27T13:33:20.257Z,4.10
2019-04-27T13:35:49.103Z,5.12
2019-04-27T13:38:19.027Z,2.72
2019-04-27T13:40:49.515Z,2.45
2019-04-27T13:43:22.827Z,2.20
2019-04-27T13:46:11.277Z,6.17
2019-04-27T13:48:56.701Z,3.52
2019-04-27T13:51:42.518Z,3.47
2019-04-27T13:54:18.693Z,2.75
2019-04-27T13:56:41.998Z,4.87
2019-04-27T13:59:12.782Z,5.12
2019-04-27T14:01:41.767Z,4.67
2019-04-27T14:04:10.619Z,5.05
2019-04-27T14:06:41.776Z,4.28
2019-04-27T14:09:12.562Z,4.22
2019-04-27T14:11:42.270Z,6.90
2019-04-27T14:14:11.110Z,2.70
2019-04-27T14:16:39.973Z,4.78
2019-04-27T14:19:10.944Z,4.22
2019-04-27T14:21:39.376Z,3.20
2019-04-27T14:24:08.244Z,7.00
2019-04-27T14:26:38.608Z,4.10
2019-04-27T14:29:08.734Z,4.42
2019-04-27T14:31:39.612Z,4.75
2019-04-27T14:34:09.169Z,6.08
2019-04-27T14:36:40.507Z,6.10
2019-04-27T14:39:10.456Z,4.53
2019-04-27T14:41:40.932Z,6.62
2019-04-27T14:44:10.875Z,6.65
2019-04-27T14:46:39.709Z,5.67
2019-04-27T14:49:08.561Z,5.60
2019-04-27T14:51:39.911Z,6.17
2019-04-27T14:54:09.255Z,8.45
2019-04-27T14:56:38.775Z,6.22
2019-04-27T14:59:07.829Z,7.95
2019-04-27T15:01:39.445Z,4.42
2019-04-27T15:04:07.886Z,4.00
2019-04-27T15:06:36.812Z,6.58
2019-04-27T15:09:06.391Z,3.40
2019-04-27T15:11:35.313Z,8.28
2019-04-27T15:14:04.493Z,6.22
2019-04-27T15:16:33.469Z,6.97
2019-04-27T15:19:03.960Z,4.70
2019-04-27T15:21:38.354Z,7.78
2019-04-27T15:24:09.385Z,6.35
2019-04-27T15:26:33.919Z,4.05
2019-04-27T15:29:04.504Z,5.55
2019-04-27T15:31:34.998Z,4.80
2019-04-27T15:34:23.327Z,5.85
2019-04-27T15:36:59.618Z,5.87
2019-04-27T15:39:30.578Z,7.65
2019-04-27T15:42:08.213Z,4.87
2019-04-27T15:44:36.527Z,10.80
2019-04-27T15:47:10.320Z,10.48
2019-04-27T15:49:35.678Z,7.58
2019-04-27T15:52:04.718Z,6.72
2019-04-27T15:54:33.667Z,6.55
2019-04-27T15:57:05.670Z,6.47
2019-04-27T15:59:39.514Z,7.58
2019-04-27T16:02:05.525Z,6.92
2019-04-27T16:04:34.955Z,6.37
2019-04-27T16:07:03.881Z,8.75
2019-04-27T16:09:32.981Z,5.58
2019-04-27T16:12:09.880Z,6.40
2019-04-27T16:14:32.387Z,6.08
2019-04-27T16:17:03.028Z,5.87
2019-04-27T16:19:31.783Z,10.30
2019-04-27T16:22:00.643Z,4.72
2019-04-27T16:24:29.491Z,8.53
2019-04-27T16:26:59.085Z,8.78
2019-04-27T16:29:31.501Z,6.97
2019-04-27T16:32:02.831Z,3.10
2019-04-27T16:34:33.119Z,10.55
2019-04-27T16:36:59.871Z,5.03
2019-04-27T16:39:28.766Z,3.62
2019-04-27T16:41:58.699Z,4.37
2019-04-27T16:44:27.727Z,2.12
2019-04-27T16:46:58.254Z,3.50
2019-04-27T16:49:28.912Z,2.33
2019-04-27T16:51:59.050Z,2.92
2019-04-27T16:54:28.314Z,3.72
2019-04-27T16:57:03.286Z,3.42
2019-04-27T16:59:40.668Z,5.30
2019-04-27T17:01:58.686Z,3.80
2019-04-27T17:04:29.092Z,3.05
2019-04-27T17:06:59.087Z,1.50
2019-04-27T17:09:29.185Z,4.87
2019-04-27T17:11:59.286Z,2.80
2019-04-27T17:14:35.209Z,3.27
2019-04-27T17:17:10.670Z,3.35
2019-04-27T17:19:43.970Z,5.28
2019-04-27T17:22:14.727Z,3.67
2019-04-27T17:24:47.377Z,3.90
2019-04-27T17:27:20.732Z,3.10
2019-04-27T17:29:50.081Z,5.05
2019-04-27T17:32:25.528Z,6.25
2019-04-27T17:34:55.542Z,5.20
2019-04-27T17:37:25.168Z,3.15
2019-04-27T17:39:58.050Z,4.85
2019-04-27T17:42:27.517Z,5.33
2019-04-27T17:44:57.671Z,5.83
2019-04-27T17:47:26.872Z,5.80
2019-04-27T17:49:58.278Z,4.62
2019-04-27T17:52:27.008Z,6.45
2019-04-27T17:54:55.858Z,9.00
2019-04-27T17:57:26.644Z,4.87
2019-04-27T18:00:01.562Z,6.90
2019-04-27T18:02:26.967Z,6.12
2019-04-27T18:04:55.819Z,5.20
2019-04-27T18:07:24.747Z,3.08
2019-04-27T18:09:53.607Z,5.10
2019-04-27T18:12:22.459Z,4.70
2019-04-27T18:14:51.323Z,5.42
2019-04-27T18:17:21.147Z,10.55
2019-04-27T18:19:51.919Z,11.10
2019-04-27T18:22:21.016Z,4.55
2019-04-27T18:25:03.335Z,6.50
2019-04-27T18:27:48.215Z,5.92
2019-04-27T18:30:22.828Z,5.95
2019-04-27T18:32:51.746Z,6.08
2019-04-27T18:35:26.176Z,5.95
2019-04-27T18:37:53.541Z,4.70
2019-04-27T18:40:24.227Z,10.25
2019-04-27T18:42:52.388Z,6.17
2019-04-27T18:45:21.239Z,9.15
2019-04-27T18:47:52.027Z,8.58
2019-04-27T18:50:28.579Z,7.97
2019-04-27T18:53:02.007Z,7.62
2019-04-27T18:55:30.855Z,4.75
2019-04-27T18:58:02.068Z,5.17
2019-04-27T19:00:30.261Z,8.18
2019-04-27T19:02:59.185Z,8.13
2019-04-27T19:05:39.966Z,7.83
2019-04-27T19:07:58.813Z,5.70
2019-04-27T19:10:28.201Z,6.12
2019-04-27T19:12:58.523Z,4.62
2019-04-27T19:15:29.443Z,7.45
2019-04-27T19:17:58.299Z,7.42
2019-04-27T19:20:28.822Z,5.47
2019-04-27T19:22:59.743Z,6.37
2019-04-27T19:25:30.027Z,6.85
2019-04-27T19:28:08.304Z,4.72
2019-04-27T19:30:41.888Z,4.72
2019-04-27T19:33:10.738Z,4.97
2019-04-27T19:35:39.595Z,3.40
2019-04-27T19:38:08.470Z,6.42
2019-04-27T19:40:37.992Z,7.08
2019-04-27T19:43:06.977Z,6.37
2019-04-27T19:45:35.817Z,5.62
2019-04-27T19:48:04.671Z,10.95
2019-04-27T19:50:33.523Z,5.78
2019-04-27T19:53:02.371Z,8.60
2019-04-27T19:55:31.224Z,3.52
2019-04-27T19:58:01.559Z,5.65
2019-04-27T20:00:48.394Z,3.65
2019-04-27T20:03:19.402Z,4.08
2019-04-27T20:05:49.451Z,2.85
2019-04-27T20:08:19.947Z,4.25
2019-04-27T20:10:48.795Z,5.97
2019-04-27T20:13:17.981Z,4.30
2019-04-27T20:15:46.820Z,5.92
2019-04-27T20:18:15.975Z,3.40
2019-04-27T20:20:44.815Z,7.95
2019-04-27T20:23:14.076Z,6.15
2019-04-27T20:25:42.932Z,5.87
2019-04-27T20:28:12.106Z,5.00
2019-04-27T20:30:41.664Z,7.58
2019-04-27T20:33:11.028Z,9.85
2019-04-27T20:35:40.758Z,5.33
2019-04-27T20:38:12.750Z,8.65
2019-04-27T20:40:41.590Z,6.92
2019-04-27T20:43:10.512Z,9.25
2019-04-27T20:45:41.241Z,6.10
2019-04-27T20:48:11.192Z,7.55
2019-04-27T20:50:41.184Z,10.13
2019-04-27T20:53:14.644Z,13.48
2019-04-27T20:55:43.503Z,15.20
2019-04-27T20:58:12.724Z,11.43
2019-04-27T21:00:41.885Z,5.50
2019-04-27T21:03:12.478Z,5.08
2019-04-27T21:05:42.972Z,7.03
2019-04-27T21:08:13.815Z,8.70
2019-04-27T21:10:42.687Z,7.55
2019-04-27T21:13:11.557Z,10.10
2019-04-27T21:15:41.910Z,9.33
2019-04-27T21:18:11.907Z,8.65
2019-04-27T21:20:41.296Z,8.35
2019-04-27T21:23:12.039Z,8.20
2019-04-27T21:25:42.128Z,7.92
2019-04-27T21:28:16.622Z,11.15
2019-04-27T21:30:42.059Z,9.60
2019-04-27T21:33:11.442Z,10.68
2019-04-27T21:35:40.546Z,7.05
2019-04-27T21:38:09.394Z,7.50
2019-04-27T21:40:38.249Z,10.08
2019-04-27T21:43:07.121Z,8.63
2019-04-27T21:45:36.012Z,8.70
2019-04-27T21:48:04.859Z,11.40
2019-04-27T21:50:34.148Z,9.50
2019-04-27T21:53:04.626Z,11.25
2019-04-27T21:55:35.147Z,5.33
2019-04-27T21:58:03.983Z,9.75
2019-04-27T22:00:38.580Z,12.10
2019-04-27T22:03:16.635Z,8.63
2019-04-27T22:05:45.495Z,12.20
2019-04-27T22:08:14.487Z,11.73
2019-04-27T22:10:43.335Z,9.75
2019-04-27T22:13:12.188Z,9.98
2019-04-27T22:15:41.638Z,13.45
2019-04-27T22:18:11.204Z,7.80
2019-04-27T22:20:42.453Z,11.08
2019-04-27T22:23:12.712Z,8.48
2019-04-27T22:25:42.199Z,14.58
2019-04-27T22:28:11.741Z,9.55
2019-04-27T22:30:40.762Z,10.78
2019-04-27T22:33:11.284Z,10.72
2019-04-27T22:35:41.528Z,15.68
2019-04-27T22:38:11.948Z,13.85
2019-04-27T22:40:57.639Z,12.65
2019-04-27T22:43:43.181Z,15.50
2019-04-27T22:46:22.365Z,13.43
2019-04-27T22:48:51.684Z,8.80
2019-04-27T22:51:21.100Z,9.85
2019-04-27T22:53:51.241Z,13.05
2019-04-27T22:56:22.234Z,11.40
2019-04-27T22:59:03.218Z,12.28
2019-04-27T23:01:31.520Z,10.18
2019-04-27T23:04:02.105Z,9.63
2019-04-27T23:06:32.763Z,13.35
2019-04-27T23:09:01.772Z,11.60
2019-04-27T23:11:32.199Z,10.40
2019-04-27T23:14:01.180Z,16.23
2019-04-27T23:16:31.734Z,11.53
2019-04-27T23:19:01.828Z,17.57
2019-04-27T23:21:31.339Z,16.80
2019-04-27T23:24:01.868Z,11.97
2019-04-27T23:26:31.301Z,11.15
2019-04-27T23:29:12.315Z,15.55
2019-04-27T23:31:32.527Z,11.22
2019-04-27T23:34:01.866Z,15.20
2019-04-27T23:36:31.741Z,11.10
2019-04-27T23:39:00.989Z,18.65
2019-04-27T23:41:31.604Z,11.55
2019-04-27T23:44:00.688Z,12.88
2019-04-27T23:46:31.159Z,21.93
2019-04-27T23:49:01.530Z,12.90
2019-04-27T23:51:50.446Z,12.00
2019-04-27T23:54:19.383Z,10.32
2019-04-27T23:56:48.247Z,18.10
2019-04-27T23:59:24.694Z,12.98
